createdAt,value
2019-04-04T00:03:42.828Z,99523.13
2019-04-04T00:08:48.314Z,99524.72
2019-04-04T00:13:53.874Z,99534.54
2019-04-04T00:18:59.278Z,99507.14
2019-04-04T00:24:04.695Z,99494.84
2019-04-04T00:29:10.191Z,99502.24
2019-04-04T00:34:15.650Z,99489.30
2019-04-04T00:39:21.054Z,99484.52
2019-04-04T00:44:26.462Z,99510.73
2019-04-04T00:49:31.909Z,99505.67
2019-04-04T00:54:37.317Z,99508.52
2019-04-04T00:59:42.794Z,99489.44
2019-04-04T01:04:48.225Z,99495.36
2019-04-04T01:09:53.621Z,99493.72
2019-04-04T01:15:00.124Z,99497.16
2019-04-04T01:20:08.547Z,99472.25
2019-04-04T01:25:13.945Z,99466.87
2019-04-04T01:30:19.329Z,99472.52
2019-04-04T01:35:24.740Z,99460.06
2019-04-04T01:40:32.927Z,99447.82
2019-04-04T01:45:37.287Z,99448.58
2019-04-04T01:50:42.738Z,99435.17
2019-04-04T01:55:48.134Z,99437.48
2019-04-04T02:00:53.547Z,99442.12
2019-04-04T02:05:59.015Z,99425.67
2019-04-04T02:11:05.488Z,99421.48
2019-04-04T02:16:11.312Z,99399.14
2019-04-04T02:21:16.715Z,99399.48
2019-04-04T02:26:22.097Z,99397.45
2019-04-04T02:31:30.880Z,99388.55
2019-04-04T02:36:36.400Z,99401.16
2019-04-04T02:41:41.930Z,99395.26
2019-04-04T02:46:47.318Z,99402.77
2019-04-04T02:51:52.736Z,99410.10
2019-04-04T02:56:58.236Z,99410.78
2019-04-04T03:02:05.740Z,99400.31
2019-04-04T03:07:10.747Z,99380.37
2019-04-04T03:12:16.182Z,99373.16
2019-04-04T03:17:21.661Z,99385.02
2019-04-04T03:22:28.277Z,99406.40
2019-04-04T03:27:33.799Z,99396.55
2019-04-04T03:32:39.230Z,99420.01
2019-04-04T03:37:46.383Z,99419.56
2019-04-04T03:42:51.965Z,99400.89
2019-04-04T03:47:57.380Z,99396.22
2019-04-04T03:53:03.053Z,99379.14
2019-04-04T03:58:08.482Z,99385.00
2019-04-04T04:03:13.956Z,99388.67
2019-04-04T04:08:22.058Z,99387.28
2019-04-04T04:13:26.512Z,99374.67
2019-04-04T04:18:31.990Z,99365.33
2019-04-04T04:23:37.490Z,99354.40
2019-04-04T04:28:42.901Z,99359.22
2019-04-04T04:33:48.382Z,99366.37
2019-04-04T04:38:58.936Z,99358.20
2019-04-04T04:44:02.783Z,99368.94
2019-04-04T04:49:08.176Z,99373.66
2019-04-04T04:54:13.635Z,99378.47
2019-04-04T04:59:19.071Z,99376.67
2019-04-04T05:04:27.993Z,99380.81
2019-04-04T05:09:31.702Z,99390.86
2019-04-04T05:14:37.103Z,99396.32
2019-04-04T05:19:45.039Z,99399.43
2019-04-04T05:25:06.740Z,99404.94
2019-04-04T05:29:56.847Z,99414.11
2019-04-04T05:35:02.263Z,99398.77
2019-04-04T05:40:07.747Z,99383.14
2019-04-04T05:45:14.293Z,99395.12
2019-04-04T05:50:20.595Z,99399.83
2019-04-04T05:55:25.994Z,99404.68
2019-04-04T06:00:31.451Z,99392.11
2019-04-04T06:05:36.977Z,99407.59
2019-04-04T06:10:42.472Z,99419.09
2019-04-04T06:15:47.960Z,99421.43
2019-04-04T06:20:53.395Z,99425.70
2019-04-04T06:25:59.004Z,99429.15
2019-04-04T06:31:04.599Z,99426.83
2019-04-04T06:36:10.150Z,99433.62
2019-04-04T06:41:15.703Z,99429.55
2019-04-04T06:46:22.779Z,99435.48
2019-04-04T06:51:28.384Z,99434.86
2019-04-04T06:56:33.978Z,99434.55
2019-04-04T07:01:39.464Z,99431.95
2019-04-04T07:06:45.054Z,99439.72
2019-04-04T07:11:50.473Z,99431.18
2019-04-04T07:16:55.957Z,99430.55
2019-04-04T07:22:01.483Z,99436.89
2019-04-04T07:27:06.971Z,99438.63
2019-04-04T07:32:12.376Z,99436.84
2019-04-04T07:37:17.824Z,99435.13
2019-04-04T07:42:23.232Z,99431.80
2019-04-04T07:47:28.716Z,99434.42
2019-04-04T07:52:34.133Z,99437.69
2019-04-04T07:57:39.646Z,99432.02
2019-04-04T08:02:45.097Z,99444.09
2019-04-04T08:07:50.516Z,99449.67
2019-04-04T08:12:56.022Z,99452.44
2019-04-04T08:18:01.572Z,99455.55
2019-04-04T08:23:07.051Z,99435.85
2019-04-04T08:28:12.466Z,99447.08
2019-04-04T08:33:18.117Z,99452.56
2019-04-04T08:38:23.670Z,99446.84
2019-04-04T08:43:29.120Z,99447.75
2019-04-04T08:48:34.550Z,99448.85
2019-04-04T08:53:40.588Z,99453.00
2019-04-04T08:58:46.160Z,99456.11
2019-04-04T09:03:51.562Z,99465.69
2019-04-04T09:08:57.069Z,99460.06
2019-04-04T09:14:02.693Z,99461.00
2019-04-04T09:19:08.141Z,99462.92
2019-04-04T09:24:13.881Z,99469.01
2019-04-04T09:29:19.278Z,99454.14
2019-04-04T09:34:24.852Z,99453.27
2019-04-04T09:39:30.691Z,99458.13
2019-04-04T09:44:36.184Z,99477.39
2019-04-04T09:49:41.600Z,99468.02
2019-04-04T09:54:47.155Z,99481.73
2019-04-04T09:59:52.667Z,99472.18
2019-04-04T10:04:58.168Z,99473.50
2019-04-04T10:10:03.790Z,99468.85
2019-04-04T10:15:11.075Z,99473.39
2019-04-04T10:20:16.712Z,99481.42
2019-04-04T10:25:22.157Z,99470.34
2019-04-04T10:30:27.668Z,99455.52
2019-04-04T10:35:33.068Z,99447.73
2019-04-04T10:40:38.564Z,99452.37
2019-04-04T10:45:44.000Z,99459.89
2019-04-04T10:50:49.567Z,99464.48
2019-04-04T10:55:54.988Z,99468.25
2019-04-04T11:01:00.421Z,99480.94
2019-04-04T11:06:06.014Z,99501.66
2019-04-04T11:11:11.414Z,99503.34
2019-04-04T11:16:29.124Z,99508.99
2019-04-04T11:21:24.158Z,99521.75
2019-04-04T11:26:29.627Z,99511.78
2019-04-04T11:31:35.073Z,99504.70
2019-04-04T11:36:40.598Z,99512.55
2019-04-04T11:41:46.253Z,99520.13
2019-04-04T11:46:51.650Z,99532.87
2019-04-04T11:51:57.196Z,99536.59
2019-04-04T11:57:02.676Z,99542.47
2019-04-04T12:02:08.117Z,99555.27
2019-04-04T12:07:13.571Z,99553.38
2019-04-04T12:12:18.973Z,99543.13
2019-04-04T12:17:24.373Z,99551.75
2019-04-04T12:22:29.944Z,99554.61
2019-04-04T12:27:35.463Z,99538.15
2019-04-04T12:32:41.054Z,99530.63
2019-04-04T12:37:46.538Z,99528.24
2019-04-04T12:42:51.996Z,99522.86
2019-04-04T12:47:57.460Z,99530.76
2019-04-04T12:53:02.908Z,99543.12
2019-04-04T12:58:10.757Z,99531.75
2019-04-04T13:03:15.459Z,99541.89
2019-04-04T13:08:20.875Z,99551.66
2019-04-04T13:13:26.461Z,99583.52
2019-04-04T13:18:32.054Z,99590.02
2019-04-04T13:23:37.493Z,99588.62
2019-04-04T13:28:42.990Z,99605.77
2019-04-04T13:33:48.538Z,99613.83
2019-04-04T13:38:55.192Z,99615.30
2019-04-04T13:44:00.718Z,99622.58
2019-04-04T13:49:06.386Z,99612.16
2019-04-04T13:54:11.836Z,99598.12
2019-04-04T13:59:17.323Z,99628.02
2019-04-04T14:04:24.581Z,99647.84
2019-04-04T14:09:29.873Z,99674.56
2019-04-04T14:14:35.366Z,99670.55
2019-04-04T14:19:40.833Z,99647.08
2019-04-04T14:24:46.341Z,99650.97
2019-04-04T14:29:51.727Z,99660.11
2019-04-04T14:34:57.157Z,99656.08
2019-04-04T14:40:02.638Z,99627.56
2019-04-04T14:45:08.218Z,99643.34
2019-04-04T14:50:13.706Z,99667.30
2019-04-04T14:55:19.125Z,99669.00
2019-04-04T15:00:24.537Z,99659.33
2019-04-04T15:05:29.946Z,99648.31
2019-04-04T15:10:35.393Z,99658.13
2019-04-04T15:16:03.144Z,99688.89
2019-04-04T15:21:08.841Z,99700.33
2019-04-04T15:26:14.427Z,99695.18
2019-04-04T15:31:19.848Z,99703.16
2019-04-04T15:36:25.510Z,99714.09
2019-04-04T15:41:36.851Z,99713.94
2019-04-04T15:46:38.160Z,99722.48
2019-04-04T15:51:43.546Z,99742.46
2019-04-04T15:56:48.960Z,99740.64
2019-04-04T16:01:54.466Z,99737.81
2019-04-04T16:07:00.103Z,99738.05
2019-04-04T16:12:05.493Z,99725.20
2019-04-04T16:17:10.959Z,99727.51
2019-04-04T16:22:16.424Z,99716.80
2019-04-04T16:27:21.847Z,99694.98
2019-04-04T16:32:27.343Z,99724.11
2019-04-04T16:37:32.780Z,99743.04
2019-04-04T16:42:38.435Z,99745.15
2019-04-04T16:47:43.889Z,99765.17
2019-04-04T16:52:49.428Z,99772.03
2019-04-04T16:57:55.021Z,99762.17
2019-04-04T17:03:03.653Z,99774.38
2019-04-04T17:08:09.193Z,99778.11
2019-04-04T17:13:14.756Z,99773.03
2019-04-04T17:18:20.816Z,99796.35
2019-04-04T17:23:26.378Z,99796.27
2019-04-04T17:28:31.939Z,99806.45
2019-04-04T17:33:37.948Z,99818.66
2019-04-04T17:38:43.857Z,99828.14
2019-04-04T17:43:49.548Z,99818.41
2019-04-04T17:48:55.302Z,99794.70
2019-04-04T17:54:00.820Z,99803.49
2019-04-04T17:59:06.276Z,99813.52
2019-04-04T18:04:11.863Z,99823.61
2019-04-04T18:09:17.253Z,99833.55
2019-04-04T18:14:22.879Z,99851.11
2019-04-04T18:19:28.279Z,99868.36
2019-04-04T18:24:33.839Z,99870.98
2019-04-04T18:29:39.255Z,99868.67
2019-04-04T18:34:45.221Z,99861.96
2019-04-04T18:39:50.792Z,99869.11
2019-04-04T18:44:56.378Z,99867.71
2019-04-04T18:50:01.791Z,99883.06
2019-04-04T18:55:19.051Z,99882.23
2019-04-04T19:00:14.540Z,99886.35
2019-04-04T19:05:19.960Z,99878.21
2019-04-04T19:10:25.379Z,99895.05
2019-04-04T19:15:30.833Z,99894.95
2019-04-04T19:20:36.287Z,99886.08
2019-04-04T19:25:41.750Z,99903.64
2019-04-04T19:30:47.182Z,99894.55
2019-04-04T19:35:52.579Z,99899.14
2019-04-04T19:40:58.034Z,99906.16
2019-04-04T19:46:03.535Z,99900.88
2019-04-04T19:51:08.951Z,99899.02
2019-04-04T19:56:14.424Z,99901.02
2019-04-04T20:01:19.898Z,99917.28
2019-04-04T20:06:25.562Z,99915.42
2019-04-04T20:11:31.036Z,99927.28
2019-04-04T20:16:36.753Z,99925.45
2019-04-04T20:21:43.249Z,99931.69
2019-04-04T20:26:48.833Z,99935.94
2019-04-04T20:31:54.418Z,99934.59
2019-04-04T20:36:59.897Z,99926.88
2019-04-04T20:42:05.349Z,99931.03
2019-04-04T20:47:10.935Z,99928.16
2019-04-04T20:52:16.354Z,99925.75
2019-04-04T20:57:22.035Z,99935.25
2019-04-04T21:02:27.936Z,99956.82
2019-04-04T21:07:33.473Z,99959.20
2019-04-04T21:12:38.990Z,99972.07
2019-04-04T21:17:44.524Z,99966.70
2019-04-04T21:22:50.096Z,99970.20
2019-04-04T21:27:55.547Z,99953.63
2019-04-04T21:33:01.036Z,99980.78
2019-04-04T21:38:06.451Z,99974.05
2019-04-04T21:43:11.860Z,99963.89
2019-04-04T21:48:17.295Z,99977.09
2019-04-04T21:53:22.769Z,99983.05
2019-04-04T21:58:28.265Z,99985.05
2019-04-04T22:03:36.541Z,99978.47
2019-04-04T22:08:40.896Z,99990.91
2019-04-04T22:13:46.302Z,99995.47
2019-04-04T22:18:51.720Z,99987.31
2019-04-04T22:23:57.183Z,99985.59
2019-04-04T22:29:02.652Z,100020.94
2019-04-04T22:34:08.057Z,100026.70
2019-04-04T22:39:13.538Z,100019.83
2019-04-04T22:44:19.010Z,100004.50
2019-04-04T22:49:24.515Z,100006.71
2019-04-04T22:54:29.916Z,100013.28
2019-04-04T22:59:35.390Z,100013.89
2019-04-04T23:04:40.935Z,100010.81
2019-04-04T23:09:46.353Z,100012.02
2019-04-04T23:14:51.778Z,100011.25
2019-04-04T23:19:57.176Z,100017.45
2019-04-04T23:25:02.593Z,100023.44
2019-04-04T23:30:08.079Z,100027.53
2019-04-04T23:35:16.380Z,100025.81
2019-04-04T23:40:20.582Z,100027.89
2019-04-04T23:45:26.053Z,100040.44
2019-04-04T23:50:31.478Z,100048.32
2019-04-04T23:55:37.138Z,100052.64
